sensor_id;sensor_type;location;lat;lon;timestamp;P1;durP1;ratioP1;P2;durP2;ratioP2
65279;SDS011;51878;55.748;48.742;2023-07-30T00:03:10;7.55;;;4.18;;
65279;SDS011;51878;55.748;48.742;2023-07-30T00:08:12;7.47;;;4.28;;
65279;SDS011;51878;55.748;48.742;2023-07-30T00:13:14;8.70;;;4.20;;
65279;SDS011;51878;55.748;48.742;2023-07-30T00:18:17;7.80;;;4.40;;
65279;SDS011;51878;55.748;48.742;2023-07-30T00:23:21;8.43;;;4.32;;
65279;SDS011;51878;55.748;48.742;2023-07-30T00:28:24;11.48;;;4.53;;
65279;SDS011;51878;55.748;48.742;2023-07-30T00:33:26;10.65;;;4.43;;
65279;SDS011;51878;55.748;48.742;2023-07-30T00:38:28;13.27;;;4.70;;
65279;SDS011;51878;55.748;48.742;2023-07-30T00:43:30;9.60;;;4.68;;
65279;SDS011;51878;55.748;48.742;2023-07-30T00:48:33;8.63;;;4.47;;
65279;SDS011;51878;55.748;48.742;2023-07-30T00:53:35;8.75;;;4.50;;
65279;SDS011;51878;55.748;48.742;2023-07-30T00:58:39;9.55;;;4.40;;
65279;SDS011;51878;55.748;48.742;2023-07-30T01:03:42;9.02;;;5.03;;
65279;SDS011;51878;55.748;48.742;2023-07-30T01:08:45;10.18;;;5.40;;
65279;SDS011;51878;55.748;48.742;2023-07-30T01:13:48;8.80;;;5.20;;
65279;SDS011;51878;55.748;48.742;2023-07-30T01:18:50;7.20;;;4.75;;
65279;SDS011;51878;55.748;48.742;2023-07-30T01:23:52;7.93;;;4.43;;
65279;SDS011;51878;55.748;48.742;2023-07-30T01:28:56;9.43;;;4.95;;
65279;SDS011;51878;55.748;48.742;2023-07-30T01:34:01;8.50;;;4.97;;
65279;SDS011;51878;55.748;48.742;2023-07-30T01:39:06;10.48;;;4.72;;
65279;SDS011;51878;55.748;48.742;2023-07-30T01:44:11;8.43;;;5.40;;
65279;SDS011;51878;55.748;48.742;2023-07-30T01:49:13;10.77;;;5.50;;
65279;SDS011;51878;55.748;48.742;2023-07-30T01:54:15;8.88;;;4.93;;
65279;SDS011;51878;55.748;48.742;2023-07-30T01:59:18;7.70;;;4.93;;
65279;SDS011;51878;55.748;48.742;2023-07-30T02:04:20;10.95;;;4.88;;
65279;SDS011;51878;55.748;48.742;2023-07-30T02:09:22;11.07;;;4.93;;
65279;SDS011;51878;55.748;48.742;2023-07-30T02:14:25;11.93;;;4.90;;
65279;SDS011;51878;55.748;48.742;2023-07-30T02:19:27;11.65;;;4.90;;
65279;SDS011;51878;55.748;48.742;2023-07-30T02:24:29;8.38;;;5.10;;
65279;SDS011;51878;55.748;48.742;2023-07-30T02:29:31;12.52;;;5.00;;
65279;SDS011;51878;55.748;48.742;2023-07-30T02:34:34;9.57;;;4.80;;
65279;SDS011;51878;55.748;48.742;2023-07-30T02:39:36;10.98;;;4.88;;
65279;SDS011;51878;55.748;48.742;2023-07-30T02:44:38;11.98;;;4.80;;
65279;SDS011;51878;55.748;48.742;2023-07-30T02:49:40;15.55;;;5.47;;
65279;SDS011;51878;55.748;48.742;2023-07-30T02:54:43;14.02;;;4.88;;
65279;SDS011;51878;55.748;48.742;2023-07-30T02:59:45;9.18;;;4.50;;
65279;SDS011;51878;55.748;48.742;2023-07-30T03:04:47;8.57;;;4.50;;
65279;SDS011;51878;55.748;48.742;2023-07-30T03:09:49;10.95;;;4.78;;
65279;SDS011;51878;55.748;48.742;2023-07-30T03:14:52;12.57;;;4.57;;
65279;SDS011;51878;55.748;48.742;2023-07-30T03:19:54;13.02;;;4.70;;
65279;SDS011;51878;55.748;48.742;2023-07-30T03:24:56;12.30;;;4.38;;
65279;SDS011;51878;55.748;48.742;2023-07-30T03:29:58;8.00;;;4.63;;
65279;SDS011;51878;55.748;48.742;2023-07-30T03:35:00;8.70;;;4.28;;
65279;SDS011;51878;55.748;48.742;2023-07-30T03:40:04;7.57;;;4.10;;
65279;SDS011;51878;55.748;48.742;2023-07-30T03:45:07;9.95;;;4.47;;
65279;SDS011;51878;55.748;48.742;2023-07-30T03:50:09;9.73;;;4.00;;
65279;SDS011;51878;55.748;48.742;2023-07-30T03:55:12;11.35;;;5.10;;
65279;SDS011;51878;55.748;48.742;2023-07-30T04:00:14;9.40;;;4.85;;
65279;SDS011;51878;55.748;48.742;2023-07-30T04:05:16;9.73;;;3.92;;
65279;SDS011;51878;55.748;48.742;2023-07-30T04:10:19;6.68;;;4.25;;
65279;SDS011;51878;55.748;48.742;2023-07-30T04:15:21;10.75;;;4.35;;
65279;SDS011;51878;55.748;48.742;2023-07-30T04:20:23;15.23;;;4.15;;
65279;SDS011;51878;55.748;48.742;2023-07-30T04:25:25;9.07;;;4.15;;
65279;SDS011;51878;55.748;48.742;2023-07-30T04:30:28;8.77;;;4.88;;
65279;SDS011;51878;55.748;48.742;2023-07-30T04:35:30;7.43;;;4.25;;
65279;SDS011;51878;55.748;48.742;2023-07-30T04:40:32;7.30;;;4.25;;
65279;SDS011;51878;55.748;48.742;2023-07-30T04:45:34;8.38;;;3.88;;
65279;SDS011;51878;55.748;48.742;2023-07-30T04:50:37;10.38;;;4.20;;
65279;SDS011;51878;55.748;48.742;2023-07-30T04:55:41;9.18;;;4.75;;
65279;SDS011;51878;55.748;48.742;2023-07-30T05:00:43;11.32;;;4.68;;
65279;SDS011;51878;55.748;48.742;2023-07-30T05:05:45;10.40;;;3.92;;
65279;SDS011;51878;55.748;48.742;2023-07-30T05:10:47;8.75;;;3.60;;
65279;SDS011;51878;55.748;48.742;2023-07-30T05:15:50;6.88;;;3.80;;
65279;SDS011;51878;55.748;48.742;2023-07-30T05:20:52;7.15;;;3.85;;
65279;SDS011;51878;55.748;48.742;2023-07-30T05:25:54;6.78;;;4.28;;
65279;SDS011;51878;55.748;48.742;2023-07-30T05:30:56;9.82;;;5.10;;
65279;SDS011;51878;55.748;48.742;2023-07-30T05:35:58;10.02;;;4.20;;
65279;SDS011;51878;55.748;48.742;2023-07-30T05:41:01;8.90;;;5.05;;
65279;SDS011;51878;55.748;48.742;2023-07-30T05:46:03;8.57;;;3.88;;
65279;SDS011;51878;55.748;48.742;2023-07-30T05:51:05;6.90;;;3.67;;
65279;SDS011;51878;55.748;48.742;2023-07-30T05:56:07;6.38;;;4.35;;
65279;SDS011;51878;55.748;48.742;2023-07-30T06:01:10;9.50;;;4.78;;
65279;SDS011;51878;55.748;48.742;2023-07-30T06:06:13;10.63;;;4.90;;
65279;SDS011;51878;55.748;48.742;2023-07-30T06:11:15;10.98;;;5.07;;
65279;SDS011;51878;55.748;48.742;2023-07-30T06:16:18;13.48;;;5.25;;
65279;SDS011;51878;55.748;48.742;2023-07-30T06:21:21;11.15;;;4.90;;
65279;SDS011;51878;55.748;48.742;2023-07-30T06:26:24;11.77;;;5.25;;
65279;SDS011;51878;55.748;48.742;2023-07-30T06:31:26;9.65;;;5.22;;
65279;SDS011;51878;55.748;48.742;2023-07-30T06:36:28;13.00;;;5.00;;
65279;SDS011;51878;55.748;48.742;2023-07-30T06:41:30;11.55;;;4.38;;
65279;SDS011;51878;55.748;48.742;2023-07-30T06:46:32;11.95;;;4.20;;
65279;SDS011;51878;55.748;48.742;2023-07-30T06:51:35;12.70;;;4.03;;
65279;SDS011;51878;55.748;48.742;2023-07-30T06:56:37;7.93;;;4.13;;
65279;SDS011;51878;55.748;48.742;2023-07-30T07:01:39;7.50;;;4.10;;
65279;SDS011;51878;55.748;48.742;2023-07-30T07:06:42;8.93;;;3.92;;
65279;SDS011;51878;55.748;48.742;2023-07-30T07:11:44;11.52;;;3.88;;
65279;SDS011;51878;55.748;48.742;2023-07-30T07:16:47;8.00;;;3.65;;
65279;SDS011;51878;55.748;48.742;2023-07-30T07:21:50;10.38;;;3.50;;
65279;SDS011;51878;55.748;48.742;2023-07-30T07:26:52;5.45;;;3.20;;
65279;SDS011;51878;55.748;48.742;2023-07-30T07:31:55;5.53;;;2.88;;
65279;SDS011;51878;55.748;48.742;2023-07-30T07:36:57;3.05;;;2.60;;
65279;SDS011;51878;55.748;48.742;2023-07-30T07:41:59;5.68;;;2.80;;
65279;SDS011;51878;55.748;48.742;2023-07-30T07:47:01;6.65;;;2.90;;
65279;SDS011;51878;55.748;48.742;2023-07-30T07:52:04;7.47;;;2.80;;
65279;SDS011;51878;55.748;48.742;2023-07-30T07:57:06;5.68;;;3.28;;
65279;SDS011;51878;55.748;48.742;2023-07-30T08:02:08;7.80;;;2.83;;
65279;SDS011;51878;55.748;48.742;2023-07-30T08:07:10;6.03;;;2.65;;
65279;SDS011;51878;55.748;48.742;2023-07-30T08:12:13;4.15;;;3.00;;
65279;SDS011;51878;55.748;48.742;2023-07-30T08:17:15;4.03;;;3.00;;
65279;SDS011;51878;55.748;48.742;2023-07-30T08:22:18;5.38;;;3.33;;
65279;SDS011;51878;55.748;48.742;2023-07-30T08:27:20;10.73;;;3.35;;
65279;SDS011;51878;55.748;48.742;2023-07-30T08:32:23;8.73;;;3.10;;
65279;SDS011;51878;55.748;48.742;2023-07-30T08:37:25;5.60;;;3.20;;
65279;SDS011;51878;55.748;48.742;2023-07-30T08:42:29;6.57;;;3.03;;
65279;SDS011;51878;55.748;48.742;2023-07-30T08:47:33;9.82;;;3.42;;
65279;SDS011;51878;55.748;48.742;2023-07-30T08:52:36;8.57;;;3.00;;
65279;SDS011;51878;55.748;48.742;2023-07-30T08:57:38;4.68;;;3.15;;
65279;SDS011;51878;55.748;48.742;2023-07-30T09:02:48;5.07;;;3.10;;
65279;SDS011;51878;55.748;48.742;2023-07-30T09:07:55;8.30;;;3.05;;
65279;SDS011;51878;55.748;48.742;2023-07-30T09:12:58;3.88;;;2.45;;
65279;SDS011;51878;55.748;48.742;2023-07-30T09:18:00;5.78;;;2.47;;
65279;SDS011;51878;55.748;48.742;2023-07-30T09:23:03;3.97;;;2.53;;
65279;SDS011;51878;55.748;48.742;2023-07-30T09:28:10;5.00;;;2.60;;
65279;SDS011;51878;55.748;48.742;2023-07-30T09:33:15;3.60;;;2.30;;
65279;SDS011;51878;55.748;48.742;2023-07-30T09:38:20;9.18;;;2.45;;
65279;SDS011;51878;55.748;48.742;2023-07-30T09:43:27;6.97;;;2.38;;
65279;SDS011;51878;55.748;48.742;2023-07-30T09:48:31;3.00;;;1.95;;
65279;SDS011;51878;55.748;48.742;2023-07-30T09:53:34;3.67;;;2.00;;
65279;SDS011;51878;55.748;48.742;2023-07-30T09:58:37;11.05;;;2.40;;
65279;SDS011;51878;55.748;48.742;2023-07-30T10:03:39;4.60;;;1.80;;
65279;SDS011;51878;55.748;48.742;2023-07-30T10:08:42;4.43;;;2.13;;
65279;SDS011;51878;55.748;48.742;2023-07-30T10:13:47;7.07;;;2.47;;
65279;SDS011;51878;55.748;48.742;2023-07-30T10:18:50;2.70;;;1.80;;
65279;SDS011;51878;55.748;48.742;2023-07-30T10:24:00;3.85;;;1.88;;
65279;SDS011;51878;55.748;48.742;2023-07-30T10:29:14;3.63;;;2.10;;
65279;SDS011;51878;55.748;48.742;2023-07-30T10:34:21;4.32;;;1.73;;
65279;SDS011;51878;55.748;48.742;2023-07-30T10:39:27;6.88;;;2.05;;
65279;SDS011;51878;55.748;48.742;2023-07-30T10:44:31;9.27;;;2.20;;
65279;SDS011;51878;55.748;48.742;2023-07-30T10:49:38;4.72;;;1.95;;
65279;SDS011;51878;55.748;48.742;2023-07-30T10:54:45;2.90;;;1.75;;
65279;SDS011;51878;55.748;48.742;2023-07-30T10:59:47;3.55;;;2.00;;
65279;SDS011;51878;55.748;48.742;2023-07-30T11:04:50;3.38;;;1.70;;
65279;SDS011;51878;55.748;48.742;2023-07-30T11:09:59;4.10;;;1.90;;
65279;SDS011;51878;55.748;48.742;2023-07-30T11:15:04;6.70;;;1.92;;
65279;SDS011;51878;55.748;48.742;2023-07-30T11:20:07;3.88;;;2.00;;
65279;SDS011;51878;55.748;48.742;2023-07-30T11:25:16;2.10;;;1.88;;
65279;SDS011;51878;55.748;48.742;2023-07-30T11:30:20;3.45;;;1.80;;
65279;SDS011;51878;55.748;48.742;2023-07-30T11:35:22;3.40;;;2.10;;
65279;SDS011;51878;55.748;48.742;2023-07-30T11:40:25;5.03;;;2.00;;
65279;SDS011;51878;55.748;48.742;2023-07-30T11:45:27;6.60;;;2.10;;
65279;SDS011;51878;55.748;48.742;2023-07-30T11:50:41;6.60;;;2.40;;
65279;SDS011;51878;55.748;48.742;2023-07-30T11:55:45;5.43;;;2.03;;
65279;SDS011;51878;55.748;48.742;2023-07-30T12:00:47;4.45;;;1.70;;
65279;SDS011;51878;55.748;48.742;2023-07-30T12:05:50;6.05;;;2.22;;
65279;SDS011;51878;55.748;48.742;2023-07-30T12:10:52;2.40;;;2.10;;
65279;SDS011;51878;55.748;48.742;2023-07-30T12:15:55;4.28;;;2.08;;
65279;SDS011;51878;55.748;48.742;2023-07-30T12:20:58;6.05;;;1.92;;
65279;SDS011;51878;55.748;48.742;2023-07-30T12:26:00;3.15;;;2.10;;
65279;SDS011;51878;55.748;48.742;2023-07-30T12:31:06;4.30;;;2.08;;
65279;SDS011;51878;55.748;48.742;2023-07-30T12:36:08;4.97;;;2.00;;
65279;SDS011;51878;55.748;48.742;2023-07-30T12:41:10;5.53;;;2.25;;
65279;SDS011;51878;55.748;48.742;2023-07-30T12:46:13;3.33;;;2.10;;
65279;SDS011;51878;55.748;48.742;2023-07-30T12:51:15;4.18;;;2.20;;
65279;SDS011;51878;55.748;48.742;2023-07-30T12:56:17;6.68;;;2.20;;
65279;SDS011;51878;55.748;48.742;2023-07-30T13:01:22;4.15;;;1.90;;
65279;SDS011;51878;55.748;48.742;2023-07-30T13:06:25;3.42;;;2.08;;
65279;SDS011;51878;55.748;48.742;2023-07-30T13:11:28;4.63;;;1.98;;
65279;SDS011;51878;55.748;48.742;2023-07-30T13:16:32;5.47;;;2.20;;
65279;SDS011;51878;55.748;48.742;2023-07-30T13:21:34;4.30;;;2.03;;
65279;SDS011;51878;55.748;48.742;2023-07-30T13:26:37;4.32;;;2.08;;
65279;SDS011;51878;55.748;48.742;2023-07-30T13:31:40;2.45;;;1.98;;
65279;SDS011;51878;55.748;48.742;2023-07-30T13:36:43;2.55;;;1.95;;
65279;SDS011;51878;55.748;48.742;2023-07-30T13:41:45;3.50;;;2.42;;
65279;SDS011;51878;55.748;48.742;2023-07-30T13:46:50;6.95;;;2.08;;
65279;SDS011;51878;55.748;48.742;2023-07-30T13:51:53;5.38;;;2.13;;
65279;SDS011;51878;55.748;48.742;2023-07-30T13:56:55;3.45;;;2.33;;
65279;SDS011;51878;55.748;48.742;2023-07-30T14:01:57;7.03;;;2.20;;
65279;SDS011;51878;55.748;48.742;2023-07-30T14:06:59;2.47;;;2.10;;
65279;SDS011;51878;55.748;48.742;2023-07-30T14:12:02;8.60;;;2.20;;
65279;SDS011;51878;55.748;48.742;2023-07-30T14:17:05;3.35;;;2.30;;
65279;SDS011;51878;55.748;48.742;2023-07-30T14:22:08;4.25;;;2.53;;
65279;SDS011;51878;55.748;48.742;2023-07-30T14:27:10;4.22;;;2.63;;
65279;SDS011;51878;55.748;48.742;2023-07-30T14:32:13;4.75;;;2.58;;
65279;SDS011;51878;55.748;48.742;2023-07-30T14:37:18;4.10;;;2.65;;
65279;SDS011;51878;55.748;48.742;2023-07-30T14:42:21;3.78;;;2.85;;
65279;SDS011;51878;55.748;48.742;2023-07-30T14:47:23;5.28;;;3.15;;
65279;SDS011;51878;55.748;48.742;2023-07-30T14:52:26;5.30;;;2.60;;
65279;SDS011;51878;55.748;48.742;2023-07-30T14:57:28;3.72;;;3.00;;
65279;SDS011;51878;55.748;48.742;2023-07-30T15:02:31;9.20;;;2.80;;
65279;SDS011;51878;55.748;48.742;2023-07-30T15:07:34;5.80;;;2.78;;
65279;SDS011;51878;55.748;48.742;2023-07-30T15:12:36;3.15;;;2.63;;
65279;SDS011;51878;55.748;48.742;2023-07-30T15:17:39;4.38;;;2.88;;
65279;SDS011;51878;55.748;48.742;2023-07-30T15:22:41;4.50;;;3.22;;
65279;SDS011;51878;55.748;48.742;2023-07-30T15:27:51;7.95;;;2.88;;
65279;SDS011;51878;55.748;48.742;2023-07-30T15:32:56;3.72;;;2.40;;
65279;SDS011;51878;55.748;48.742;2023-07-30T15:38:00;4.50;;;2.80;;
65279;SDS011;51878;55.748;48.742;2023-07-30T15:43:02;5.05;;;2.85;;
65279;SDS011;51878;55.748;48.742;2023-07-30T15:48:06;4.72;;;3.10;;
65279;SDS011;51878;55.748;48.742;2023-07-30T15:53:08;4.53;;;2.90;;
65279;SDS011;51878;55.748;48.742;2023-07-30T15:58:10;4.22;;;2.80;;
65279;SDS011;51878;55.748;48.742;2023-07-30T16:03:13;6.10;;;2.88;;
65279;SDS011;51878;55.748;48.742;2023-07-30T16:08:16;5.20;;;3.17;;
65279;SDS011;51878;55.748;48.742;2023-07-30T16:13:18;5.05;;;2.92;;
65279;SDS011;51878;55.748;48.742;2023-07-30T16:18:20;4.72;;;2.72;;
65279;SDS011;51878;55.748;48.742;2023-07-30T16:23:22;5.20;;;2.90;;
65279;SDS011;51878;55.748;48.742;2023-07-30T16:28:25;8.32;;;3.40;;
65279;SDS011;51878;55.748;48.742;2023-07-30T16:33:27;4.60;;;2.90;;
65279;SDS011;51878;55.748;48.742;2023-07-30T16:38:30;3.00;;;2.70;;
65279;SDS011;51878;55.748;48.742;2023-07-30T16:43:33;4.43;;;3.30;;
65279;SDS011;51878;55.748;48.742;2023-07-30T16:48:35;5.63;;;3.28;;
65279;SDS011;51878;55.748;48.742;2023-07-30T16:53:37;5.68;;;3.50;;
65279;SDS011;51878;55.748;48.742;2023-07-30T16:58:40;9.38;;;3.90;;
65279;SDS011;51878;55.748;48.742;2023-07-30T17:03:42;7.72;;;3.55;;
65279;SDS011;51878;55.748;48.742;2023-07-30T17:08:45;5.53;;;3.67;;
65279;SDS011;51878;55.748;48.742;2023-07-30T17:13:47;5.32;;;3.88;;
65279;SDS011;51878;55.748;48.742;2023-07-30T17:18:49;5.75;;;3.70;;
65279;SDS011;51878;55.748;48.742;2023-07-30T17:23:55;6.35;;;4.03;;
65279;SDS011;51878;55.748;48.742;2023-07-30T17:28:58;4.72;;;3.97;;
65279;SDS011;51878;55.748;48.742;2023-07-30T17:34:01;6.18;;;4.53;;
65279;SDS011;51878;55.748;48.742;2023-07-30T17:39:03;6.53;;;3.85;;
65279;SDS011;51878;55.748;48.742;2023-07-30T17:44:10;5.50;;;4.00;;
65279;SDS011;51878;55.748;48.742;2023-07-30T17:49:23;5.53;;;4.20;;
65279;SDS011;51878;55.748;48.742;2023-07-30T17:59:31;5.50;;;4.22;;
65279;SDS011;51878;55.748;48.742;2023-07-30T18:04:33;6.55;;;4.28;;
65279;SDS011;51878;55.748;48.742;2023-07-30T18:09:36;6.85;;;4.38;;
65279;SDS011;51878;55.748;48.742;2023-07-30T18:14:39;5.93;;;4.60;;
65279;SDS011;51878;55.748;48.742;2023-07-30T18:19:41;8.65;;;5.60;;
65279;SDS011;51878;55.748;48.742;2023-07-30T18:24:43;7.75;;;4.93;;
65279;SDS011;51878;55.748;48.742;2023-07-30T18:29:46;6.15;;;4.68;;
65279;SDS011;51878;55.748;48.742;2023-07-30T18:34:54;7.07;;;4.93;;
65279;SDS011;51878;55.748;48.742;2023-07-30T18:40:00;9.38;;;5.00;;
65279;SDS011;51878;55.748;48.742;2023-07-30T18:45:05;6.65;;;4.22;;
65279;SDS011;51878;55.748;48.742;2023-07-30T18:50:08;5.95;;;4.53;;
65279;SDS011;51878;55.748;48.742;2023-07-30T18:55:16;5.30;;;4.57;;
65279;SDS011;51878;55.748;48.742;2023-07-30T19:00:18;8.07;;;4.35;;
65279;SDS011;51878;55.748;48.742;2023-07-30T19:05:21;7.28;;;4.60;;
65279;SDS011;51878;55.748;48.742;2023-07-30T19:10:23;8.35;;;3.90;;
65279;SDS011;51878;55.748;48.742;2023-07-30T19:15:25;6.32;;;3.83;;
65279;SDS011;51878;55.748;48.742;2023-07-30T19:20:28;4.18;;;3.78;;
65279;SDS011;51878;55.748;48.742;2023-07-30T19:25:30;4.20;;;3.80;;
65279;SDS011;51878;55.748;48.742;2023-07-30T19:30:33;4.45;;;3.90;;
65279;SDS011;51878;55.748;48.742;2023-07-30T19:35:35;6.03;;;3.80;;
65279;SDS011;51878;55.748;48.742;2023-07-30T19:40:50;5.47;;;4.22;;
65279;SDS011;51878;55.748;48.742;2023-07-30T19:45:58;4.88;;;4.10;;
65279;SDS011;51878;55.748;48.742;2023-07-30T19:51:03;9.30;;;4.20;;
65279;SDS011;51878;55.748;48.742;2023-07-30T19:56:05;10.68;;;4.45;;
65279;SDS011;51878;55.748;48.742;2023-07-30T20:01:10;10.68;;;4.80;;
65279;SDS011;51878;55.748;48.742;2023-07-30T20:06:12;5.45;;;4.63;;
65279;SDS011;51878;55.748;48.742;2023-07-30T20:11:15;4.93;;;4.40;;
65279;SDS011;51878;55.748;48.742;2023-07-30T20:16:18;8.25;;;5.80;;
65279;SDS011;51878;55.748;48.742;2023-07-30T20:21:23;5.10;;;4.60;;
65279;SDS011;51878;55.748;48.742;2023-07-30T20:26:25;12.93;;;9.80;;
65279;SDS011;51878;55.748;48.742;2023-07-30T20:31:28;6.20;;;4.53;;
65279;SDS011;51878;55.748;48.742;2023-07-30T20:36:30;7.70;;;5.35;;
65279;SDS011;51878;55.748;48.742;2023-07-30T20:41:32;6.75;;;4.80;;
65279;SDS011;51878;55.748;48.742;2023-07-30T20:46:34;7.68;;;4.95;;
65279;SDS011;51878;55.748;48.742;2023-07-30T20:51:37;5.78;;;5.13;;
65279;SDS011;51878;55.748;48.742;2023-07-30T20:56:39;7.63;;;4.88;;
65279;SDS011;51878;55.748;48.742;2023-07-30T21:01:42;5.50;;;4.75;;
65279;SDS011;51878;55.748;48.742;2023-07-30T21:06:44;6.80;;;5.13;;
65279;SDS011;51878;55.748;48.742;2023-07-30T21:11:46;6.85;;;5.20;;
65279;SDS011;51878;55.748;48.742;2023-07-30T21:16:49;15.05;;;5.28;;
65279;SDS011;51878;55.748;48.742;2023-07-30T21:21:51;8.48;;;5.25;;
65279;SDS011;51878;55.748;48.742;2023-07-30T21:26:53;9.20;;;5.32;;
65279;SDS011;51878;55.748;48.742;2023-07-30T21:31:56;9.27;;;5.65;;
65279;SDS011;51878;55.748;48.742;2023-07-30T21:36:58;6.00;;;5.25;;
65279;SDS011;51878;55.748;48.742;2023-07-30T21:42:00;12.38;;;6.30;;
65279;SDS011;51878;55.748;48.742;2023-07-30T21:47:03;5.68;;;4.95;;
65279;SDS011;51878;55.748;48.742;2023-07-30T21:52:24;6.88;;;5.45;;
65279;SDS011;51878;55.748;48.742;2023-07-30T21:57:31;6.45;;;5.00;;
65279;SDS011;51878;55.748;48.742;2023-07-30T22:02:33;8.65;;;5.95;;
65279;SDS011;51878;55.748;48.742;2023-07-30T22:07:36;13.57;;;11.25;;
65279;SDS011;51878;55.748;48.742;2023-07-30T22:12:38;5.38;;;4.88;;
65279;SDS011;51878;55.748;48.742;2023-07-30T22:17:40;9.82;;;5.53;;
65279;SDS011;51878;55.748;48.742;2023-07-30T22:22:42;7.72;;;5.75;;
65279;SDS011;51878;55.748;48.742;2023-07-30T22:27:44;6.57;;;5.97;;
65279;SDS011;51878;55.748;48.742;2023-07-30T22:33:03;9.13;;;6.25;;
65279;SDS011;51878;55.748;48.742;2023-07-30T22:38:05;7.38;;;6.35;;
65279;SDS011;51878;55.748;48.742;2023-07-30T22:43:07;8.30;;;5.75;;
65279;SDS011;51878;55.748;48.742;2023-07-30T22:48:10;7.53;;;6.35;;
65279;SDS011;51878;55.748;48.742;2023-07-30T22:53:12;7.65;;;5.45;;
65279;SDS011;51878;55.748;48.742;2023-07-30T22:58:14;6.57;;;5.88;;
65279;SDS011;51878;55.748;48.742;2023-07-30T23:03:17;7.30;;;4.97;;
65279;SDS011;51878;55.748;48.742;2023-07-30T23:08:19;7.15;;;5.00;;
65279;SDS011;51878;55.748;48.742;2023-07-30T23:13:21;5.75;;;5.15;;
65279;SDS011;51878;55.748;48.742;2023-07-30T23:18:24;7.53;;;6.07;;
65279;SDS011;51878;55.748;48.742;2023-07-30T23:23:26;9.73;;;5.75;;
65279;SDS011;51878;55.748;48.742;2023-07-30T23:28:28;7.70;;;5.22;;
65279;SDS011;51878;55.748;48.742;2023-07-30T23:33:31;8.70;;;5.75;;
65279;SDS011;51878;55.748;48.742;2023-07-30T23:38:33;5.60;;;5.10;;
65279;SDS011;51878;55.748;48.742;2023-07-30T23:43:35;6.85;;;6.15;;
65279;SDS011;51878;55.748;48.742;2023-07-30T23:48:38;6.68;;;5.30;;
65279;SDS011;51878;55.748;48.742;2023-07-30T23:53:40;6.03;;;5.43;;
65279;SDS011;51878;55.748;48.742;2023-07-30T23:58:44;6.53;;;4.80;;
